Santa Rosa, NM

7:00 AM MDT on July 24, 2014 (GMT -0600)
Tucumcari Municipal (KTCC) Elev 4065 ft | 35.18 °N, 103.60 °W | Change Station

Current weather conditions updated 7 minutes ago

Clear
Clear
74 °F
Feels Like 74 °F
N
7
Wind Variable Wind from SSW

Today is forecast to be nearly the same temperature as yesterday.

Today
High -- | Low -- °F
--% Chance of Precip.
Yesterday
High -- | Low -- °F
Precip. -- in
6:02 AM 8:07 PM
Waning Crescent, 5% visible
Pressure 30.01 in
Visibility 10.0 miles
Clouds Clear
Dew Point 58 °F
Humidity 57%
Rainfall 0.00 in
Snow Depth Not available.
UV 0 out of 12
Pollen 4.40 out of 12
Air Quality Not available.
Flu Activity Not available.
METAR KTCC 241253Z AUTO 21006KT 10SM CLR 23/14 A3023 RMK AO2 SLP163 T02330144

More Conditions Fewer Conditions

Pressure 30.01 in
Visibility 10.0 miles
Clouds Clear
Dew Point 58 °F
Humidity 57%
Rainfall 0.00 in
Snow Depth Not available.
UV 0 out of 12
Pollen 4.40 out of 12
Air Quality Not available.
Flu Activity Not available.
METAR KTCC 241253Z AUTO 21006KT 10SM CLR 23/14 A3023 RMK AO2 SLP163 T02330144

More Conditions Fewer Conditions

10-Day Weather Forecast

Almanac

Astronomy

Jul. 24, 2014 Rise Set
Actual Time 6:02 AM MDT 8:07 PM MDT
Civil Twilight 5:34 AM MDT 8:35 PM MDT
Nautical Twilight 4:59 AM MDT 9:10 PM MDT
Astronomical Twilight 4:22 AM MDT 9:47 PM MDT
Moon 4:11 AM MDT 6:25 PM MDT
Length of Visible Light 15h 01m
Length of Day
14h 05m
Tomorrow will be 1m 26s shorter.
Waning Crescent, 5% of the Moon is Illuminated
Today
Waning Crescent
Jul 26
New
Aug 3
First Quarter
Aug 10
Full
Aug 17
Last Quarter

Today's Extremes

State Highs State Lows

Community

WunderPhotos

Upload Photos

1,736,993 photos uploaded!

Nearby

Snow Depth

Station Depth Elevation
Wesner Springs 1 in 11120 ft
Santa Fe 2 in 11445 ft
Gallegos Peak 0 in 9800 ft
Tolby 0 in 10180 ft
Sierra Blanca 2 in 10280 ft

Earthquake Activity

City Distance Mag. Time & Date
No recent earthquake activity has been reported nearby.
Minimum magnitude displayed is 2.5.

Coastal Water Temperatures

Place Temperature
No Stations Reporting

Nearby Weather Stations

Station Location Temp. Heat Index Dew Point Humidity Wind Precip. Elev Updated Type
MesoWest LSTNOS , Santa Rosa, NM 67 °F - - - ESE  at  2 mph 0.00 in / hr 4882 ft 5:50 AM MDT MADIS
MesoWest PASTRA , Vaughn, NM 65 °F - - - SSW  at  11 mph 0.00 in / hr 5286 ft 4:45 AM MDT MADIS
MesoWest ARVID , Cuervo, NM 74 °F 72 °F - - SSE  at  11 mph 0.00 in / hr 4802 ft 5:10 AM MDT MADIS

Show More Stations Show Fewer Stations